createdAt,value
2018-05-03T00:01:06.401Z,13.57
2018-05-03T00:04:09.880Z,13.43
2018-05-03T00:07:13.863Z,13.46
2018-05-03T00:10:18.479Z,13.48
2018-05-03T00:13:21.799Z,13.47
2018-05-03T00:16:25.199Z,13.38
2018-05-03T00:19:28.581Z,13.38
2018-05-03T00:22:31.940Z,13.44
2018-05-03T00:25:35.279Z,13.49
2018-05-03T00:28:38.511Z,13.47
2018-05-03T00:31:41.884Z,13.54
2018-05-03T00:34:45.992Z,13.60
2018-05-03T00:37:49.238Z,13.65
2018-05-03T00:40:52.524Z,13.53
2018-05-03T00:43:55.824Z,13.47
2018-05-03T00:46:59.184Z,13.48
2018-05-03T00:50:02.581Z,13.55
2018-05-03T00:53:05.731Z,13.49
2018-05-03T00:56:09.096Z,13.52
2018-05-03T00:59:12.467Z,13.49
2018-05-03T01:02:15.704Z,13.56
2018-05-03T01:05:19.093Z,13.40
2018-05-03T01:08:22.669Z,13.28
2018-05-03T01:11:26.903Z,13.19
2018-05-03T01:14:30.356Z,13.11
2018-05-03T01:17:33.636Z,13.10
2018-05-03T01:20:36.918Z,13.13
2018-05-03T01:23:40.388Z,13.18
2018-05-03T01:26:43.641Z,13.13
2018-05-03T01:29:46.919Z,13.11
2018-05-03T01:32:50.292Z,13.07
2018-05-03T01:36:58.171Z,13.05
2018-05-03T01:40:01.438Z,13.06
2018-05-03T01:43:04.888Z,13.01
2018-05-03T01:46:08.268Z,13.06
2018-05-03T01:49:11.585Z,13.12
2018-05-03T01:52:15.359Z,13.18
2018-05-03T01:55:19.252Z,13.23
2018-05-03T01:58:23.548Z,13.26
2018-05-03T02:01:27.557Z,13.23
2018-05-03T02:04:31.555Z,13.13
2018-05-03T02:07:34.843Z,13.09
2018-05-03T02:10:38.247Z,13.12
2018-05-03T02:13:41.840Z,13.16
2018-05-03T02:16:45.159Z,13.14
2018-05-03T02:19:48.553Z,13.13
2018-05-03T02:22:51.936Z,13.11
2018-05-03T02:25:56.850Z,13.12
2018-05-03T02:29:00.186Z,13.06
2018-05-03T02:32:04.403Z,12.95
2018-05-03T02:35:08.784Z,12.88
2018-05-03T02:38:12.115Z,12.84
2018-05-03T02:41:15.515Z,12.92
2018-05-03T02:44:18.816Z,12.85
2018-05-03T02:47:22.425Z,12.83
2018-05-03T02:50:26.345Z,12.84
2018-05-03T02:53:29.527Z,12.87
2018-05-03T02:56:32.920Z,12.89
2018-05-03T02:59:47.567Z,12.94
2018-05-03T03:04:05.101Z,12.98
2018-05-03T03:07:33.536Z,13.00
2018-05-03T03:11:43.281Z,12.83
2018-05-03T03:16:02.727Z,12.73
2018-05-03T03:19:49.068Z,12.86
2018-05-03T03:25:03.570Z,12.89
2018-05-03T03:29:52.968Z,12.88
2018-05-03T03:33:07.638Z,12.81
2018-05-03T03:36:51.164Z,12.80
2018-05-03T03:41:06.990Z,12.86
2018-05-03T03:45:13.712Z,12.75
2018-05-03T03:48:17.015Z,12.65
2018-05-03T03:51:20.430Z,12.67
2018-05-03T03:54:23.800Z,12.73
2018-05-03T03:57:28.052Z,12.77
2018-05-03T04:00:31.427Z,12.77
2018-05-03T04:03:34.789Z,12.69
2018-05-03T04:06:38.031Z,12.67
2018-05-03T04:09:41.526Z,12.71
2018-05-03T04:12:44.850Z,12.75
2018-05-03T04:15:48.099Z,12.74
2018-05-03T04:19:02.856Z,12.68
2018-05-03T04:22:17.495Z,12.61
2018-05-03T04:26:26.304Z,12.62
2018-05-03T04:29:29.802Z,12.60
2018-05-03T04:32:33.042Z,12.55
2018-05-03T04:35:36.230Z,12.52
2018-05-03T04:38:39.466Z,12.38
2018-05-03T04:41:42.773Z,12.29
2018-05-03T04:44:46.207Z,12.31
2018-05-03T04:47:49.555Z,12.21
2018-05-03T04:50:52.893Z,12.11
2018-05-03T04:53:57.020Z,12.13
2018-05-03T04:57:00.317Z,12.26
2018-05-03T05:00:03.689Z,12.25
2018-05-03T05:03:07.065Z,12.15
2018-05-03T05:06:10.489Z,12.17
2018-05-03T05:09:13.812Z,12.16
2018-05-03T05:12:17.143Z,12.09
2018-05-03T05:15:20.489Z,12.13
2018-05-03T05:18:23.764Z,12.17
2018-05-03T05:21:28.207Z,12.14
2018-05-03T05:24:32.524Z,12.12
2018-05-03T05:27:35.777Z,12.07
2018-05-03T05:30:45.285Z,12.11
2018-05-03T05:33:48.531Z,12.11
2018-05-03T05:36:51.680Z,12.01
2018-05-03T05:39:54.981Z,12.11
2018-05-03T05:42:58.223Z,12.10
2018-05-03T05:46:02.321Z,12.08
2018-05-03T05:49:05.544Z,12.10
2018-05-03T05:52:08.772Z,12.14
2018-05-03T05:55:11.936Z,12.18
2018-05-03T05:58:15.120Z,12.38
2018-05-03T06:01:18.436Z,12.54
2018-05-03T06:04:21.751Z,12.64
2018-05-03T06:07:25.039Z,12.75
2018-05-03T06:10:28.326Z,12.84
2018-05-03T06:13:31.508Z,12.90
2018-05-03T06:16:34.772Z,12.83
2018-05-03T06:19:38.123Z,12.84
2018-05-03T06:22:41.299Z,12.84
2018-05-03T06:25:44.499Z,12.86
2018-05-03T06:28:47.797Z,12.89
2018-05-03T06:31:50.988Z,12.87
2018-05-03T06:34:54.189Z,12.84
2018-05-03T06:37:58.506Z,12.78
2018-05-03T06:41:01.858Z,12.78
2018-05-03T06:44:05.137Z,12.82
2018-05-03T06:47:08.388Z,12.87
2018-05-03T06:50:11.704Z,12.94
2018-05-03T06:53:14.843Z,13.11
2018-05-03T06:56:18.083Z,13.27
2018-05-03T06:59:21.336Z,13.40
2018-05-03T07:02:24.683Z,13.50
2018-05-03T07:05:27.983Z,13.53
2018-05-03T07:08:31.298Z,13.55
2018-05-03T07:11:35.492Z,13.56
2018-05-03T07:14:38.732Z,13.55
2018-05-03T07:17:41.888Z,13.54
2018-05-03T07:20:45.183Z,13.54
2018-05-03T07:23:48.527Z,13.49
2018-05-03T07:26:51.809Z,13.53
2018-05-03T07:29:55.119Z,13.56
2018-05-03T07:32:58.313Z,13.54
2018-05-03T07:36:01.518Z,13.62
2018-05-03T07:39:06.436Z,13.64
2018-05-03T07:42:09.691Z,13.64
2018-05-03T07:45:13.033Z,13.71
2018-05-03T07:48:16.304Z,13.80
2018-05-03T07:51:19.455Z,13.89
2018-05-03T07:54:22.671Z,13.95
2018-05-03T07:57:25.907Z,14.12
2018-05-03T08:00:29.113Z,14.15
2018-05-03T08:03:33.360Z,14.22
2018-05-03T08:06:36.760Z,14.21
2018-05-03T08:09:40.008Z,14.14
2018-05-03T08:12:43.258Z,14.01
2018-05-03T08:15:46.599Z,14.02
2018-05-03T08:18:49.827Z,14.04
2018-05-03T08:21:53.077Z,14.07
2018-05-03T08:24:57.388Z,14.10
2018-05-03T08:28:00.697Z,14.21
2018-05-03T08:31:05.144Z,14.12
2018-05-03T08:34:08.689Z,14.29
2018-05-03T08:37:11.914Z,14.34
2018-05-03T08:40:15.215Z,14.36
2018-05-03T08:43:18.476Z,14.41
2018-05-03T08:46:21.725Z,14.41
2018-05-03T08:49:24.988Z,14.39
2018-05-03T08:52:28.318Z,14.53
2018-05-03T08:55:31.593Z,14.85
2018-05-03T08:58:36.011Z,14.97
2018-05-03T09:01:40.332Z,15.20
2018-05-03T09:04:43.664Z,15.27
2018-05-03T09:07:46.957Z,15.36
2018-05-03T09:10:50.201Z,15.50
2018-05-03T09:13:53.314Z,15.48
2018-05-03T09:16:56.627Z,15.49
2018-05-03T09:19:59.943Z,15.77
2018-05-03T09:23:04.195Z,15.97
2018-05-03T09:26:07.471Z,16.07
2018-05-03T09:29:10.752Z,16.04
2018-05-03T09:32:14.057Z,15.89
2018-05-03T09:35:17.360Z,15.99
2018-05-03T09:38:20.657Z,16.08
2018-05-03T09:41:23.976Z,15.95
2018-05-03T09:44:27.251Z,16.06
2018-05-03T09:47:30.412Z,16.27
2018-05-03T09:50:34.656Z,16.22
2018-05-03T09:53:38.004Z,16.38
2018-05-03T09:56:41.246Z,16.27
2018-05-03T09:59:44.549Z,16.31
2018-05-03T10:02:47.837Z,16.47
2018-05-03T10:05:51.151Z,16.45
2018-05-03T10:08:54.415Z,16.42
2018-05-03T10:11:57.711Z,16.61
2018-05-03T10:15:02.517Z,16.58
2018-05-03T10:18:05.768Z,16.72
2018-05-03T10:21:09.106Z,16.94
2018-05-03T10:24:12.380Z,16.92
2018-05-03T10:27:15.681Z,16.96
2018-05-03T10:30:19.014Z,16.89
2018-05-03T10:33:23.280Z,17.08
2018-05-03T10:36:26.474Z,17.25
2018-05-03T10:39:29.773Z,17.21
2018-05-03T10:42:33.476Z,17.29
2018-05-03T10:45:36.756Z,17.46
2018-05-03T10:48:40.149Z,17.54
2018-05-03T10:51:43.333Z,17.40
2018-05-03T10:54:46.524Z,17.64
2018-05-03T10:57:49.761Z,17.91
2018-05-03T11:00:53.064Z,18.11
2018-05-03T11:03:56.420Z,18.38
2018-05-03T11:06:59.735Z,18.21
2018-05-03T11:10:04.483Z,17.96
2018-05-03T11:13:07.631Z,18.18
2018-05-03T11:16:10.985Z,18.14
2018-05-03T11:19:14.278Z,18.53
2018-05-03T11:22:17.590Z,18.86
2018-05-03T11:25:20.859Z,18.58
2018-05-03T11:28:24.152Z,18.78
2018-05-03T11:31:27.480Z,18.84
2018-05-03T11:34:30.676Z,19.06
2018-05-03T11:37:35.302Z,19.16
2018-05-03T11:40:38.593Z,19.17
2018-05-03T11:43:41.794Z,19.06
2018-05-03T11:46:44.957Z,19.19
2018-05-03T11:49:48.166Z,19.18
2018-05-03T11:52:51.420Z,19.23
2018-05-03T11:55:54.668Z,19.29
2018-05-03T11:58:57.939Z,19.43
2018-05-03T12:02:01.500Z,19.62
2018-05-03T12:05:07.373Z,19.47
2018-05-03T12:08:10.626Z,19.38
2018-05-03T12:11:13.897Z,19.19
2018-05-03T12:14:17.076Z,19.16
2018-05-03T12:17:20.278Z,19.60
2018-05-03T12:20:23.504Z,19.58
2018-05-03T12:23:26.803Z,19.56
2018-05-03T12:26:30.078Z,19.62
2018-05-03T12:29:34.221Z,19.61
2018-05-03T12:32:37.457Z,19.48
2018-05-03T12:35:40.721Z,19.72
2018-05-03T12:38:44.024Z,20.04
2018-05-03T12:41:47.336Z,20.31
2018-05-03T12:44:50.608Z,20.26
2018-05-03T12:47:54.828Z,20.14
2018-05-03T12:50:58.092Z,20.11
2018-05-03T12:54:01.404Z,20.15
2018-05-03T12:57:05.876Z,20.27
2018-05-03T13:00:09.112Z,20.46
2018-05-03T13:03:12.432Z,20.24
2018-05-03T13:06:15.712Z,20.29
2018-05-03T13:09:19.027Z,20.48
2018-05-03T13:12:22.271Z,20.51
2018-05-03T13:15:25.466Z,20.67
2018-05-03T13:18:28.721Z,20.87
2018-05-03T13:21:31.979Z,20.81
2018-05-03T13:24:35.999Z,20.54
2018-05-03T13:27:39.357Z,20.25
2018-05-03T13:30:42.622Z,19.98
2018-05-03T13:33:45.898Z,19.97
2018-05-03T13:36:49.146Z,19.94
2018-05-03T13:39:52.425Z,20.01
2018-05-03T13:42:55.744Z,20.24
2018-05-03T13:45:59.148Z,20.63
2018-05-03T13:49:02.401Z,20.42
2018-05-03T13:52:06.942Z,20.47
2018-05-03T13:55:10.089Z,20.81
2018-05-03T13:58:13.331Z,20.39
2018-05-03T14:01:16.573Z,20.19
2018-05-03T14:04:19.846Z,20.12
2018-05-03T14:07:23.143Z,20.00
2018-05-03T14:10:26.421Z,20.20
2018-05-03T14:13:29.704Z,20.02
2018-05-03T14:16:34.500Z,20.17
2018-05-03T14:19:37.754Z,20.18
2018-05-03T14:22:41.050Z,20.38
2018-05-03T14:25:44.196Z,20.26
2018-05-03T14:28:48.101Z,20.11
2018-05-03T14:31:51.461Z,20.11
2018-05-03T14:34:54.727Z,19.81
2018-05-03T14:37:58.015Z,19.65
2018-05-03T14:41:01.354Z,19.66
2018-05-03T14:44:04.634Z,19.67
2018-05-03T14:47:08.061Z,19.81
2018-05-03T14:50:11.332Z,19.82
2018-05-03T14:53:14.742Z,19.75
2018-05-03T14:56:18.905Z,19.81
2018-05-03T14:59:22.093Z,19.88
2018-05-03T15:02:25.288Z,19.92
2018-05-03T15:05:28.677Z,19.95
2018-05-03T15:08:31.925Z,20.06
2018-05-03T15:11:35.220Z,20.16
2018-05-03T15:14:39.589Z,20.04
2018-05-03T15:17:42.834Z,20.06
2018-05-03T15:20:46.826Z,19.98
2018-05-03T15:23:50.148Z,20.04
2018-05-03T15:26:53.517Z,19.95
2018-05-03T15:29:56.743Z,19.83
2018-05-03T15:33:00.062Z,19.84
2018-05-03T15:36:03.391Z,19.99
2018-05-03T15:39:06.707Z,20.13
2018-05-03T15:42:09.950Z,20.31
2018-05-03T15:45:13.253Z,20.41
2018-05-03T15:48:17.139Z,20.51
2018-05-03T15:51:20.468Z,20.55
2018-05-03T15:54:23.639Z,20.75
2018-05-03T15:57:27.872Z,20.80
2018-05-03T16:00:31.144Z,20.89
2018-05-03T16:03:34.469Z,21.11
2018-05-03T16:06:37.744Z,21.17
2018-05-03T16:09:40.941Z,21.21
2018-05-03T16:12:44.267Z,21.17
2018-05-03T16:15:48.126Z,21.08
2018-05-03T16:18:51.419Z,21.31
2018-05-03T16:21:54.639Z,21.46
2018-05-03T16:24:57.918Z,21.52
2018-05-03T16:28:01.253Z,21.59
2018-05-03T16:31:06.536Z,21.49
2018-05-03T16:34:09.804Z,21.24
2018-05-03T16:37:13.160Z,20.91
2018-05-03T16:40:17.059Z,20.91
2018-05-03T16:43:20.232Z,20.85
2018-05-03T16:46:23.449Z,20.96
2018-05-03T16:49:26.722Z,20.96
2018-05-03T16:52:30.047Z,20.96
2018-05-03T16:55:33.280Z,21.02
2018-05-03T16:58:37.600Z,20.94
2018-05-03T17:01:41.124Z,20.84
2018-05-03T17:04:44.338Z,20.43
2018-05-03T17:07:47.573Z,20.27
2018-05-03T17:10:50.811Z,20.16
2018-05-03T17:13:55.050Z,20.22
2018-05-03T17:16:58.290Z,20.35
2018-05-03T17:20:01.850Z,20.35
2018-05-03T17:23:05.095Z,20.30
2018-05-03T17:26:08.373Z,20.27
2018-05-03T17:29:11.658Z,20.08
2018-05-03T17:32:14.887Z,19.96
2018-05-03T17:35:18.227Z,19.84
2018-05-03T17:38:22.063Z,19.78
2018-05-03T17:41:25.288Z,19.71
2018-05-03T17:44:28.907Z,19.71
2018-05-03T17:47:31.987Z,19.64
2018-05-03T17:50:35.280Z,19.48
2018-05-03T17:53:38.685Z,19.42
2018-05-03T17:56:41.907Z,19.40
2018-05-03T17:59:45.279Z,19.40
2018-05-03T18:02:48.571Z,19.25
2018-05-03T18:05:52.902Z,19.21
2018-05-03T18:08:56.296Z,19.19
2018-05-03T18:11:59.617Z,19.13
2018-05-03T18:15:02.895Z,19.09
2018-05-03T18:18:06.282Z,19.05
2018-05-03T18:21:09.620Z,18.97
2018-05-03T18:24:12.877Z,18.95
2018-05-03T18:27:16.156Z,18.96
2018-05-03T18:30:19.500Z,18.83
2018-05-03T18:33:22.686Z,18.73
2018-05-03T18:36:26.028Z,18.77
2018-05-03T18:39:29.360Z,18.69
2018-05-03T18:42:33.667Z,18.64
2018-05-03T18:45:37.357Z,18.59
2018-05-03T18:48:40.719Z,18.50
2018-05-03T18:51:45.040Z,18.46
2018-05-03T18:54:48.686Z,18.30
2018-05-03T18:57:51.943Z,18.27
2018-05-03T19:00:55.357Z,18.24
2018-05-03T19:03:58.686Z,18.19
2018-05-03T19:07:02.019Z,18.10
2018-05-03T19:10:05.490Z,17.99
2018-05-03T19:13:08.963Z,17.92
2018-05-03T19:16:13.112Z,17.84
2018-05-03T19:19:16.445Z,17.83
2018-05-03T19:22:19.736Z,17.72
2018-05-03T19:25:23.144Z,17.61
2018-05-03T19:28:26.429Z,17.53
2018-05-03T19:31:29.728Z,17.49
2018-05-03T19:34:33.098Z,17.40
2018-05-03T19:37:36.347Z,17.31
2018-05-03T19:40:39.694Z,17.23
2018-05-03T19:43:43.950Z,17.15
2018-05-03T19:46:47.671Z,17.09
2018-05-03T19:49:51.035Z,17.11
2018-05-03T19:52:54.620Z,17.06
2018-05-03T19:55:57.972Z,17.01
2018-05-03T19:59:01.340Z,16.97
2018-05-03T20:02:04.688Z,16.97
2018-05-03T20:05:07.945Z,16.90
2018-05-03T20:08:11.344Z,16.86
2018-05-03T20:11:14.901Z,16.84
2018-05-03T20:14:18.263Z,16.86
2018-05-03T20:17:21.641Z,16.88
2018-05-03T20:20:24.960Z,16.84
2018-05-03T20:23:29.265Z,16.80
2018-05-03T20:26:32.505Z,16.76
2018-05-03T20:29:35.853Z,16.75
2018-05-03T20:32:39.250Z,16.73
2018-05-03T20:35:44.701Z,16.72
2018-05-03T20:38:48.066Z,16.66
2018-05-03T20:41:51.306Z,16.70
2018-05-03T20:44:54.602Z,16.64
2018-05-03T20:47:57.775Z,16.62
2018-05-03T20:51:00.997Z,16.64
2018-05-03T20:54:04.435Z,16.68
2018-05-03T20:57:08.078Z,16.63
2018-05-03T21:00:11.345Z,16.56
2018-05-03T21:03:14.915Z,16.54
2018-05-03T21:06:19.139Z,16.54
2018-05-03T21:09:22.574Z,16.57
2018-05-03T21:12:25.915Z,16.60
2018-05-03T21:15:29.167Z,16.65
2018-05-03T21:18:32.645Z,16.68
2018-05-03T21:21:36.016Z,16.74
2018-05-03T21:24:39.304Z,16.58
2018-05-03T21:27:43.242Z,16.62
2018-05-03T21:30:46.577Z,16.65
2018-05-03T21:33:49.853Z,16.59
2018-05-03T21:36:53.240Z,16.48
2018-05-03T21:39:56.623Z,16.40
2018-05-03T21:42:59.921Z,16.31
2018-05-03T21:46:03.251Z,16.29
2018-05-03T21:49:06.608Z,16.28
2018-05-03T21:52:09.977Z,16.31
2018-05-03T21:55:14.671Z,16.29
2018-05-03T21:58:18.042Z,16.34
2018-05-03T22:01:21.333Z,16.43
2018-05-03T22:04:24.748Z,16.45
2018-05-03T22:07:28.119Z,16.45
2018-05-03T22:10:31.458Z,16.57
2018-05-03T22:13:34.833Z,16.68
2018-05-03T22:16:38.237Z,16.72
2018-05-03T22:19:41.524Z,16.72
2018-05-03T22:22:45.034Z,16.62
2018-05-03T22:25:48.336Z,16.38
2018-05-03T22:28:51.654Z,16.26
2018-05-03T22:31:54.928Z,16.19
2018-05-03T22:34:58.089Z,16.07
2018-05-03T22:38:01.416Z,16.04
2018-05-03T22:41:04.708Z,15.82
2018-05-03T22:44:08.131Z,15.68
2018-05-03T22:47:11.355Z,15.61
2018-05-03T22:50:15.875Z,15.58
2018-05-03T22:53:19.170Z,15.55
2018-05-03T22:56:22.634Z,15.44
2018-05-03T22:59:26.037Z,15.43
2018-05-03T23:02:29.434Z,15.42
2018-05-03T23:05:32.697Z,15.36
2018-05-03T23:08:35.975Z,15.30
2018-05-03T23:11:39.339Z,15.36
2018-05-03T23:14:43.247Z,15.30
2018-05-03T23:17:46.665Z,15.19
2018-05-03T23:20:50.031Z,15.01
2018-05-03T23:23:53.295Z,14.96
2018-05-03T23:26:56.729Z,15.00
2018-05-03T23:30:00.147Z,14.98
2018-05-03T23:33:03.427Z,14.88
2018-05-03T23:36:06.835Z,14.78
2018-05-03T23:39:10.227Z,14.77
2018-05-03T23:42:14.440Z,14.72
2018-05-03T23:45:17.847Z,14.60
2018-05-03T23:48:21.247Z,14.48
2018-05-03T23:51:24.547Z,14.49
2018-05-03T23:54:28.043Z,14.37
2018-05-03T23:57:31.454Z,14.31
